Time;durP1;ratioP1;P1;durP2;ratioP2;P2;SDS_P1;SDS_P2;PMS_P1;PMS_P2;Temp;Humidity;BMP_temperature;BMP_pressure;BME280_temperature;BME280_humidity;BME280_pressure;Samples;Min_cycle;Max_cycle;Signal;HPM_P1;HPM_P2
2021/05/21 00:02:20;;;;;;;4.80;1.50;;;14.40;64.30;;;;;;5018594;28;20044;-74
2021/05/21 00:04:45;;;;;;;5.30;1.52;;;14.40;64.30;;;;;;5018217;28;20040;-74
2021/05/21 00:07:11;;;;;;;6.22;1.80;;;14.40;64.30;;;;;;5023449;28;20046;-73
2021/05/21 00:09:37;;;;;;;6.00;1.35;;;14.40;64.30;;;;;;5027234;28;20029;-74
2021/05/21 00:12:03;;;;;;;5.63;1.65;;;14.40;64.30;;;;;;5027150;28;20030;-77
2021/05/21 00:14:29;;;;;;;6.75;1.65;;;14.40;64.50;;;;;;5016843;28;20935;-75
2021/05/21 00:16:54;;;;;;;7.60;1.80;;;14.40;64.50;;;;;;5017095;28;20034;-74
2021/05/21 00:19:20;;;;;;;5.43;1.50;;;14.40;64.50;;;;;;5022909;28;20037;-77
2021/05/21 00:21:46;;;;;;;6.15;2.05;;;14.40;64.60;;;;;;5026260;28;20038;-74
2021/05/21 00:24:12;;;;;;;9.10;2.25;;;14.30;65.20;;;;;;5030458;28;20029;-76
2021/05/21 00:26:38;;;;;;;14.52;2.63;;;14.20;68.10;;;;;;5016673;28;20086;-77
2021/05/21 00:29:04;;;;;;;17.58;3.47;;;14.10;69.60;;;;;;5029518;28;20132;-74
2021/05/21 00:31:29;;;;;;;15.75;4.32;;;13.70;73.10;;;;;;5012783;28;20651;-74
2021/05/21 00:33:55;;;;;;;12.05;3.70;;;13.50;75.20;;;;;;5017306;28;20052;-74
2021/05/21 00:36:21;;;;;;;14.43;4.15;;;13.40;76.50;;;;;;5025862;28;20120;-79
2021/05/21 00:38:47;;;;;;;15.73;3.33;;;13.40;77.20;;;;;;5019256;28;20045;-75
2021/05/21 00:41:13;;;;;;;16.15;4.07;;;13.40;78.10;;;;;;5028084;28;20037;-77
2021/05/21 00:43:38;;;;;;;11.85;3.63;;;13.30;78.60;;;;;;5029628;28;20492;-75
2021/05/21 00:46:04;;;;;;;19.55;5.13;;;13.10;79.40;;;;;;5029067;28;20065;-74
2021/05/21 00:48:30;;;;;;;19.38;4.70;;;13.10;79.80;;;;;;5007573;28;20031;-74
2021/05/21 00:50:55;;;;;;;18.23;4.32;;;13.00;80.40;;;;;;5008752;28;20059;-74
2021/05/21 00:53:23;;;;;;;17.23;4.85;;;13.00;80.50;;;;;;5031666;28;20057;-77
2021/05/21 00:55:49;;;;;;;15.75;5.60;;;13.00;80.90;;;;;;5023867;28;20460;-75
2021/05/21 00:58:15;;;;;;;15.13;5.72;;;13.00;81.60;;;;;;5021237;28;20050;-75
2021/05/21 01:00:41;;;;;;;17.08;6.38;;;12.90;81.10;;;;;;5016007;28;20108;-74
2021/05/21 01:03:06;;;;;;;16.67;6.60;;;13.00;81.20;;;;;;5018015;28;20511;-74
2021/05/21 01:05:32;;;;;;;17.90;6.18;;;13.10;81.40;;;;;;5004658;28;20539;-74
2021/05/21 01:07:58;;;;;;;12.70;4.50;;;13.00;80.90;;;;;;5007744;28;20488;-74
2021/05/21 01:10:24;;;;;;;14.25;4.18;;;13.10;80.70;;;;;;5019095;28;20064;-76
2021/05/21 01:12:50;;;;;;;12.90;3.97;;;13.10;80.00;;;;;;5020629;28;20029;-74
2021/05/21 01:15:16;;;;;;;15.00;3.63;;;13.10;79.40;;;;;;5027184;28;20118;-74
2021/05/21 01:17:42;;;;;;;12.00;3.40;;;13.00;78.90;;;;;;5021781;28;20029;-75
2021/05/21 01:20:10;;;;;;;11.70;3.72;;;13.00;79.00;;;;;;5014125;28;20042;-74
2021/05/21 01:22:36;;;;;;;15.27;3.53;;;12.90;78.60;;;;;;4993938;28;20113;-74
2021/05/21 01:25:02;;;;;;;14.73;3.33;;;13.00;77.70;;;;;;5021246;28;20187;-74
2021/05/21 01:27:28;;;;;;;14.80;3.85;;;12.90;77.10;;;;;;5017127;28;20504;-74
2021/05/21 01:29:54;;;;;;;19.13;3.90;;;13.00;75.90;;;;;;5024591;28;20053;-74
2021/05/21 01:32:19;;;;;;;21.13;4.88;;;13.00;74.00;;;;;;5026407;28;20053;-73
2021/05/21 01:34:45;;;;;;;17.52;3.50;;;13.00;73.80;;;;;;5024278;28;20037;-74
2021/05/21 01:37:16;;;;;;;22.67;4.32;;;13.10;73.30;;;;;;5022277;28;20117;-73
2021/05/21 01:39:41;;;;;;;18.45;4.22;;;13.00;73.60;;;;;;5018551;28;20045;-75
2021/05/21 01:42:13;;;;;;;18.60;4.05;;;13.00;72.60;;;;;;5005490;28;20042;-74
2021/05/21 01:44:40;;;;;;;19.83;3.95;;;13.10;72.30;;;;;;5023438;28;20448;-74
2021/05/21 01:47:06;;;;;;;27.48;4.90;;;13.10;72.60;;;;;;5017546;28;20436;-74
2021/05/21 01:49:32;;;;;;;21.35;3.53;;;13.00;72.00;;;;;;5020169;28;20117;-73
2021/05/21 01:52:00;;;;;;;18.27;3.78;;;13.00;72.30;;;;;;5022494;28;20192;-75
2021/05/21 01:54:28;;;;;;;22.52;4.60;;;13.00;72.30;;;;;;5021002;28;20030;-73
2021/05/21 01:56:54;;;;;;;14.88;3.53;;;13.00;72.60;;;;;;5026219;28;20041;-74
2021/05/21 01:59:23;;;;;;;17.10;3.92;;;13.00;72.40;;;;;;5017179;28;20042;-75
2021/05/21 02:01:50;;;;;;;19.08;4.28;;;12.90;72.40;;;;;;5008160;28;20042;-74
2021/05/21 02:04:25;;;;;;;19.85;3.97;;;12.90;72.30;;;;;;5016728;28;20063;-74
2021/05/21 02:06:51;;;;;;;19.05;4.10;;;12.90;72.10;;;;;;5022867;28;20073;-74
2021/05/21 02:09:17;;;;;;;20.90;4.05;;;12.80;72.20;;;;;;5012179;28;20418;-74
2021/05/21 02:11:42;;;;;;;17.90;3.97;;;12.80;72.40;;;;;;5014066;28;20559;-73
2021/05/21 02:14:08;;;;;;;17.15;3.88;;;12.80;72.00;;;;;;5014602;28;20034;-73
2021/05/21 02:16:34;;;;;;;20.48;4.20;;;12.80;71.60;;;;;;5022910;28;20151;-74
2021/05/21 02:18:59;;;;;;;25.40;4.45;;;12.70;71.60;;;;;;5017521;28;20140;-74
2021/05/21 02:21:31;;;;;;;17.90;4.32;;;12.70;70.70;;;;;;5018303;28;20036;-74
2021/05/21 02:23:56;;;;;;;19.33;4.50;;;12.80;70.30;;;;;;5038794;28;20040;-74
2021/05/21 02:26:22;;;;;;;16.13;3.25;;;12.80;70.20;;;;;;5040416;28;20048;-77
2021/05/21 02:28:48;;;;;;;18.65;4.20;;;12.80;70.50;;;;;;5027285;28;20059;-73
2021/05/21 02:31:13;;;;;;;22.00;4.38;;;12.80;69.40;;;;;;5023338;28;20486;-72
2021/05/21 02:33:39;;;;;;;21.20;4.22;;;12.80;69.40;;;;;;5019551;28;20033;-73
2021/05/21 02:36:05;;;;;;;14.02;3.67;;;12.80;69.60;;;;;;5002489;28;20048;-73
2021/05/21 02:38:31;;;;;;;15.98;3.78;;;12.80;69.70;;;;;;5014895;28;20113;-75
2021/05/21 02:40:56;;;;;;;20.02;4.40;;;12.70;69.50;;;;;;5027602;28;20030;-73
2021/05/21 02:43:22;;;;;;;22.98;4.15;;;12.70;69.30;;;;;;5027163;28;20025;-72
2021/05/21 02:45:48;;;;;;;23.40;4.28;;;12.60;69.60;;;;;;5027654;28;20111;-72
2021/05/21 02:48:13;;;;;;;20.60;4.05;;;12.60;69.60;;;;;;5024342;28;20052;-72
2021/05/21 02:50:42;;;;;;;17.23;3.65;;;12.50;69.60;;;;;;5020658;28;20018;-73
2021/05/21 02:53:08;;;;;;;23.00;4.72;;;12.50;69.70;;;;;;5013519;28;20026;-73
2021/05/21 02:55:34;;;;;;;18.83;4.30;;;12.50;69.50;;;;;;5015989;28;20556;-73
2021/05/21 02:58:00;;;;;;;21.00;3.75;;;12.40;69.70;;;;;;5014163;28;20053;-73
2021/05/21 03:00:26;;;;;;;22.65;4.72;;;12.40;69.50;;;;;;5019693;28;20068;-73
2021/05/21 03:02:52;;;;;;;20.40;4.60;;;12.50;69.20;;;;;;5027352;28;20065;-73
2021/05/21 03:05:22;;;;;;;20.40;4.68;;;12.40;69.40;;;;;;5026462;28;20392;-75
2021/05/21 03:07:57;;;;;;;23.55;4.38;;;12.30;69.40;;;;;;5027350;28;20053;-74
2021/05/21 03:10:27;;;;;;;20.38;3.97;;;12.30;69.30;;;;;;5023884;28;20033;-74
2021/05/21 03:12:53;;;;;;;19.10;4.07;;;12.30;68.70;;;;;;5028562;28;20053;-74
2021/05/21 03:15:20;;;;;;;23.42;4.00;;;12.30;68.10;;;;;;5024563;28;20026;-73
2021/05/21 03:17:46;;;;;;;19.70;4.05;;;12.30;68.10;;;;;;5022354;28;20021;-73
2021/05/21 03:20:13;;;;;;;18.02;3.92;;;12.20;68.30;;;;;;5025867;28;20099;-74
2021/05/21 03:22:40;;;;;;;19.30;3.88;;;12.30;68.00;;;;;;5024453;28;20032;-73
2021/05/21 03:25:05;;;;;;;21.70;4.50;;;12.30;68.40;;;;;;5021689;28;20044;-74
2021/05/21 03:27:32;;;;;;;23.02;4.20;;;12.30;68.30;;;;;;5024409;28;20034;-74
2021/05/21 03:29:58;;;;;;;17.50;3.90;;;12.20;68.80;;;;;;5018991;28;20599;-74
2021/05/21 03:32:24;;;;;;;17.70;3.72;;;12.10;69.10;;;;;;5007399;28;20572;-74
2021/05/21 03:34:50;;;;;;;18.25;3.85;;;12.10;69.10;;;;;;5008661;28;20037;-75
2021/05/21 03:37:16;;;;;;;18.15;3.20;;;12.20;68.90;;;;;;5001289;28;20038;-75
2021/05/21 03:39:42;;;;;;;15.70;3.80;;;12.10;68.80;;;;;;5007331;28;20084;-73
2021/05/21 03:42:07;;;;;;;21.10;3.88;;;12.10;68.50;;;;;;5012302;28;20112;-74
2021/05/21 03:44:33;;;;;;;21.98;3.72;;;12.20;68.10;;;;;;5027991;28;20045;-75
2021/05/21 03:47:02;;;;;;;23.65;4.70;;;12.20;68.20;;;;;;5014116;28;20129;-73
2021/05/21 03:49:29;;;;;;;20.60;3.88;;;12.30;68.30;;;;;;5014949;28;20038;-73
2021/05/21 03:51:55;;;;;;;17.17;3.92;;;12.30;67.90;;;;;;5027967;28;20088;-76
2021/05/21 03:54:21;;;;;;;19.23;4.47;;;12.40;68.00;;;;;;5022119;28;20117;-73
2021/05/21 03:56:47;;;;;;;20.88;3.92;;;12.30;67.60;;;;;;5031653;28;20052;-73
2021/05/21 03:59:13;;;;;;;18.35;4.13;;;12.30;67.70;;;;;;5021135;28;20042;-73
2021/05/21 04:01:39;;;;;;;17.27;4.13;;;12.30;67.80;;;;;;5024316;28;20041;-76
2021/05/21 04:04:05;;;;;;;20.23;3.78;;;12.30;67.80;;;;;;5011407;28;20037;-75
2021/05/21 04:06:31;;;;;;;19.98;4.50;;;12.20;67.90;;;;;;5035775;28;20048;-74
2021/05/21 04:08:58;;;;;;;22.35;4.32;;;12.20;67.80;;;;;;5024651;28;20038;-74
2021/05/21 04:11:24;;;;;;;16.33;3.28;;;12.30;67.50;;;;;;5025758;28;20061;-76
2021/05/21 04:13:50;;;;;;;18.17;4.72;;;12.40;67.60;;;;;;5018918;28;20034;-73
2021/05/21 04:16:15;;;;;;;19.45;4.78;;;12.40;67.50;;;;;;5023466;28;20049;-76
2021/05/21 04:18:41;;;;;;;21.13;4.60;;;12.50;67.70;;;;;;5021816;28;20030;-73
2021/05/21 04:21:07;;;;;;;19.52;4.70;;;12.60;67.40;;;;;;5023649;28;20060;-74
2021/05/21 04:23:32;;;;;;;21.58;4.03;;;12.70;67.10;;;;;;5025462;28;20025;-76
2021/05/21 04:25:59;;;;;;;19.23;4.35;;;12.70;67.60;;;;;;5021014;28;20045;-74
2021/05/21 04:28:24;;;;;;;26.85;4.72;;;12.80;67.90;;;;;;5021130;28;20029;-73
2021/05/21 04:30:52;;;;;;;15.13;4.00;;;12.70;67.70;;;;;;5022486;28;20125;-72
2021/05/21 04:33:18;;;;;;;20.38;5.13;;;12.70;67.90;;;;;;5024666;28;20025;-73
2021/05/21 04:35:43;;;;;;;20.95;5.40;;;12.60;68.00;;;;;;5023721;28;20052;-74
2021/05/21 04:38:09;;;;;;;18.33;4.00;;;12.60;68.00;;;;;;5017662;28;20033;-73
2021/05/21 04:40:35;;;;;;;19.13;4.30;;;12.60;67.80;;;;;;5023789;28;20120;-76
2021/05/21 04:43:00;;;;;;;17.58;4.55;;;12.50;67.90;;;;;;5026672;28;20091;-73
2021/05/21 04:45:26;;;;;;;17.23;4.10;;;12.50;67.60;;;;;;5001305;28;20482;-73
2021/05/21 04:47:51;;;;;;;16.98;3.90;;;12.50;67.60;;;;;;4999441;28;20018;-74
2021/05/21 04:50:17;;;;;;;16.02;4.25;;;12.50;67.50;;;;;;5005948;28;20030;-74
2021/05/21 04:52:43;;;;;;;22.70;4.63;;;12.60;67.80;;;;;;4997619;28;20022;-73
2021/05/21 04:55:10;;;;;;;18.40;4.28;;;12.60;68.20;;;;;;4999681;28;20037;-74
2021/05/21 04:57:35;;;;;;;14.13;3.60;;;12.60;68.30;;;;;;4997651;28;20046;-74
2021/05/21 05:00:01;;;;;;;16.58;4.22;;;12.60;68.40;;;;;;5000511;28;20065;-75
2021/05/21 05:02:27;;;;;;;16.60;4.00;;;12.60;69.00;;;;;;4999180;28;20038;-73
2021/05/21 05:04:53;;;;;;;17.35;4.18;;;12.70;68.70;;;;;;5004071;28;20420;-73
2021/05/21 05:07:19;;;;;;;17.90;4.32;;;12.90;68.90;;;;;;5008801;28;20033;-76
2021/05/21 05:09:44;;;;;;;18.88;4.82;;;13.20;68.10;;;;;;5001031;28;20121;-74
2021/05/21 05:12:10;;;;;;;21.92;4.57;;;13.30;69.40;;;;;;5003801;28;20034;-73
2021/05/21 05:14:36;;;;;;;19.55;4.30;;;13.10;71.00;;;;;;5002918;28;20116;-73
2021/05/21 05:17:02;;;;;;;18.92;4.28;;;13.00;72.80;;;;;;5001172;28;20029;-76
2021/05/21 05:19:27;;;;;;;20.35;4.82;;;12.80;74.00;;;;;;5007774;28;20046;-74
2021/05/21 05:21:53;;;;;;;22.60;3.92;;;12.50;75.00;;;;;;5008795;28;20038;-74
2021/05/21 05:24:21;;;;;;;22.08;4.70;;;12.30;76.10;;;;;;5003709;28;20038;-73
2021/05/21 05:26:47;;;;;;;18.60;4.97;;;12.10;76.70;;;;;;5000861;28;20058;-75
2021/05/21 05:29:13;;;;;;;23.08;5.13;;;12.10;77.00;;;;;;5004474;28;20034;-76
2021/05/21 05:31:39;;;;;;;15.00;3.72;;;12.90;75.60;;;;;;5022170;28;20044;-74
2021/05/21 05:34:06;;;;;;;18.48;3.97;;;14.10;70.70;;;;;;4997923;28;20478;-72
2021/05/21 05:36:32;;;;;;;18.92;4.18;;;15.10;66.70;;;;;;5001221;28;20560;-70
2021/05/21 05:38:57;;;;;;;13.63;3.80;;;16.00;63.40;;;;;;5018286;28;20037;-70
2021/05/21 05:41:23;;;;;;;18.90;4.75;;;16.00;62.10;;;;;;5019198;28;20040;-72
2021/05/21 05:43:49;;;;;;;18.60;4.35;;;15.90;61.80;;;;;;5020022;28;20795;-70
2021/05/21 05:46:14;;;;;;;14.15;3.45;;;15.50;63.90;;;;;;5027226;28;20060;-73
2021/05/21 05:48:40;;;;;;;16.58;3.47;;;16.20;62.80;;;;;;5022465;28;20045;-70
2021/05/21 05:51:06;;;;;;;16.70;3.80;;;16.70;60.30;;;;;;5016444;28;20048;-70
2021/05/21 05:53:36;;;;;;;16.77;4.38;;;16.30;61.00;;;;;;4997465;28;20480;-70
2021/05/21 05:56:05;;;;;;;19.13;3.80;;;15.40;62.80;;;;;;5008267;28;20048;-70
2021/05/21 05:58:31;;;;;;;23.63;4.93;;;14.70;65.40;;;;;;5020839;28;20053;-71
2021/05/21 06:00:57;;;;;;;18.70;4.15;;;14.10;67.10;;;;;;5010194;28;20104;-70
2021/05/21 06:03:23;;;;;;;18.48;5.63;;;13.60;70.40;;;;;;5021469;28;20134;-70
2021/05/21 06:05:49;;;;;;;16.10;3.90;;;13.00;72.70;;;;;;5026408;28;20136;-70
2021/05/21 06:08:14;;;;;;;19.65;4.35;;;12.80;74.50;;;;;;5024520;28;20037;-70
2021/05/21 06:10:40;;;;;;;19.77;4.25;;;12.60;75.20;;;;;;5011726;28;20095;-70
2021/05/21 06:13:08;;;;;;;17.33;4.05;;;12.60;75.10;;;;;;5003890;28;20381;-70
2021/05/21 06:15:34;;;;;;;21.00;4.35;;;12.50;75.50;;;;;;5018813;28;20034;-70
2021/05/21 06:18:01;;;;;;;16.70;3.90;;;12.50;76.00;;;;;;5016924;28;20535;-70
2021/05/21 06:20:28;;;;;;;17.75;4.47;;;12.60;75.70;;;;;;5004798;28;20038;-69
2021/05/21 06:22:54;;;;;;;23.45;5.15;;;12.60;75.80;;;;;;5013048;28;20025;-69
2021/05/21 06:25:23;;;;;;;20.23;4.28;;;12.60;76.20;;;;;;5017604;28;20038;-69
2021/05/21 06:27:50;;;;;;;19.15;4.13;;;12.60;76.90;;;;;;5016844;28;20041;-76
2021/05/21 06:30:16;;;;;;;19.52;4.07;;;12.50;76.90;;;;;;5021099;28;20040;-69
2021/05/21 06:32:43;;;;;;;18.55;4.43;;;12.50;77.10;;;;;;5015279;28;20473;-69
2021/05/21 06:35:09;;;;;;;18.20;4.20;;;12.20;78.10;;;;;;5020583;28;20126;-69
2021/05/21 06:37:36;;;;;;;18.40;4.28;;;12.00;78.40;;;;;;5020466;28;20496;-69
2021/05/21 06:40:02;;;;;;;21.58;3.85;;;12.10;78.40;;;;;;5024130;28;20034;-69
2021/05/21 06:42:28;;;;;;;19.08;5.55;;;12.20;78.60;;;;;;5021100;28;20057;-69
2021/05/21 06:44:53;;;;;;;21.08;4.22;;;12.40;77.80;;;;;;5025286;28;20084;-72
2021/05/21 06:47:19;;;;;;;20.40;4.25;;;12.70;76.80;;;;;;5022319;28;20033;-70
2021/05/21 06:49:47;;;;;;;17.23;4.30;;;13.10;76.90;;;;;;5019476;28;20048;-69
2021/05/21 06:52:13;;;;;;;20.17;5.18;;;13.60;75.40;;;;;;5019177;28;20824;-68
2021/05/21 06:54:39;;;;;;;16.20;4.03;;;13.90;75.00;;;;;;5018591;28;20525;-69
2021/05/21 06:57:04;;;;;;;22.33;4.15;;;13.70;72.50;;;;;;5023872;28;20124;-69
2021/05/21 06:59:30;;;;;;;20.25;4.25;;;13.70;73.10;;;;;;5024461;28;20072;-69
2021/05/21 07:01:56;;;;;;;20.88;5.18;;;13.50;73.20;;;;;;5023440;28;20441;-69
2021/05/21 07:04:21;;;;;;;20.38;4.78;;;13.40;73.10;;;;;;5021830;28;20458;-70
2021/05/21 07:06:47;;;;;;;16.30;4.10;;;13.60;73.00;;;;;;5016587;28;20072;-68
2021/05/21 07:09:12;;;;;;;19.98;4.25;;;13.80;72.40;;;;;;5024375;28;20128;-69
2021/05/21 07:11:38;;;;;;;18.70;4.50;;;13.80;71.20;;;;;;5023777;28;20033;-68
2021/05/21 07:14:04;;;;;;;19.60;4.68;;;13.50;71.40;;;;;;5017358;28;20096;-69
2021/05/21 07:16:30;;;;;;;21.23;4.50;;;13.40;73.60;;;;;;5016431;28;20048;-68
2021/05/21 07:18:56;;;;;;;21.20;4.82;;;13.90;72.90;;;;;;5023495;28;20113;-68
2021/05/21 07:21:22;;;;;;;20.08;5.13;;;14.00;70.90;;;;;;5007628;28;20038;-68
2021/05/21 07:23:50;;;;;;;23.05;5.47;;;14.00;70.20;;;;;;5028075;28;20318;-69
2021/05/21 07:26:16;;;;;;;19.30;4.25;;;13.60;70.80;;;;;;5025915;28;20544;-68
2021/05/21 07:28:42;;;;;;;23.98;4.90;;;13.60;71.50;;;;;;5028772;28;20497;-68
2021/05/21 07:31:08;;;;;;;19.67;5.22;;;13.60;71.10;;;;;;5031060;28;20053;-68
2021/05/21 07:33:35;;;;;;;19.73;4.80;;;13.60;70.00;;;;;;5014126;28;20512;-69
2021/05/21 07:36:02;;;;;;;19.23;4.18;;;13.60;70.20;;;;;;5023398;28;20061;-68
2021/05/21 07:38:27;;;;;;;20.13;4.85;;;13.40;69.50;;;;;;5026113;28;20042;-70
2021/05/21 07:40:53;;;;;;;20.90;4.75;;;13.50;69.50;;;;;;5025262;28;20045;-67
2021/05/21 07:43:19;;;;;;;19.30;4.03;;;13.60;69.20;;;;;;5024294;28;20034;-67
2021/05/21 07:45:44;;;;;;;18.27;4.72;;;13.80;68.40;;;;;;5033678;28;20053;-70
2021/05/21 07:48:10;;;;;;;22.95;4.55;;;14.40;68.00;;;;;;5007018;28;20693;-73
2021/05/21 07:50:38;;;;;;;18.77;4.30;;;14.60;64.40;;;;;;5016231;28;20030;-71
2021/05/21 07:53:09;;;;;;;17.83;4.45;;;14.90;64.40;;;;;;4994488;28;20100;-71
2021/05/21 07:55:35;;;;;;;20.67;4.53;;;15.30;63.80;;;;;;5009737;28;20039;-70
2021/05/21 07:58:01;;;;;;;19.88;4.75;;;15.30;62.30;;;;;;5008373;28;20031;-72
2021/05/21 08:00:27;;;;;;;19.67;4.35;;;15.20;63.30;;;;;;5002944;28;20076;-70
2021/05/21 08:02:53;;;;;;;21.17;4.03;;;15.40;63.90;;;;;;5004247;28;20039;-70
2021/05/21 08:05:19;;;;;;;14.63;3.95;;;15.30;61.80;;;;;;5000973;28;20095;-70
2021/05/21 08:07:44;;;;;;;24.17;4.32;;;15.10;63.00;;;;;;5012953;28;20042;-72
2021/05/21 08:10:10;;;;;;;18.27;4.30;;;14.80;63.50;;;;;;5017385;28;20030;-71
2021/05/21 08:12:36;;;;;;;18.83;3.90;;;14.50;65.40;;;;;;5023614;28;20547;-70
2021/05/21 08:15:02;;;;;;;23.88;5.00;;;14.10;68.80;;;;;;5026133;28;20072;-71
2021/05/21 08:17:34;;;;;;;23.30;5.43;;;13.80;69.80;;;;;;5025627;28;20113;-72
2021/05/21 08:20:00;;;;;;;17.10;4.25;;;13.70;70.70;;;;;;5023908;28;20057;-70
2021/05/21 08:22:25;;;;;;;17.23;3.58;;;13.70;69.60;;;;;;5016480;28;20112;-70
2021/05/21 08:24:52;;;;;;;19.80;4.65;;;13.80;70.50;;;;;;5025549;28;20038;-70
2021/05/21 08:27:17;;;;;;;23.10;4.60;;;14.10;69.80;;;;;;5019163;28;20128;-69
2021/05/21 08:29:43;;;;;;;17.85;4.10;;;14.60;68.50;;;;;;5019818;28;20167;-71
2021/05/21 08:32:09;;;;;;;16.52;3.85;;;15.20;67.90;;;;;;5021706;28;20110;-73
2021/05/21 08:34:34;;;;;;;17.02;3.60;;;15.60;64.60;;;;;;5023776;28;20029;-69
2021/05/21 08:37:00;;;;;;;15.55;4.05;;;16.00;64.00;;;;;;5019400;28;20040;-69
2021/05/21 08:39:26;;;;;;;15.00;3.90;;;16.10;60.80;;;;;;5013816;28;20390;-69
2021/05/21 08:41:54;;;;;;;16.25;3.40;;;16.10;61.00;;;;;;5023665;28;20034;-69
2021/05/21 08:44:21;;;;;;;17.67;3.60;;;15.70;60.40;;;;;;5021359;28;20034;-70
2021/05/21 08:46:47;;;;;;;16.88;3.78;;;16.00;61.10;;;;;;5017425;28;20050;-69
2021/05/21 08:49:16;;;;;;;16.25;4.57;;;16.00;59.60;;;;;;5022390;28;20022;-69
2021/05/21 08:51:41;;;;;;;20.00;3.85;;;15.70;61.10;;;;;;5018856;28;20091;-70
2021/05/21 08:54:08;;;;;;;14.63;3.83;;;15.60;61.50;;;;;;5013713;28;20037;-71
2021/05/21 08:56:34;;;;;;;19.77;4.07;;;15.30;61.80;;;;;;5023801;28;20466;-69
2021/05/21 08:59:00;;;;;;;18.45;4.47;;;15.00;62.20;;;;;;5024847;28;20069;-68
2021/05/21 09:01:27;;;;;;;15.23;3.97;;;14.80;62.60;;;;;;5010826;28;20108;-68
2021/05/21 09:04:01;;;;;;;17.60;4.20;;;14.60;66.10;;;;;;5017441;28;20069;-73
2021/05/21 09:06:28;;;;;;;18.40;4.55;;;14.60;67.40;;;;;;5020776;28;20084;-69
2021/05/21 09:08:59;;;;;;;19.58;4.05;;;14.30;67.60;;;;;;5023966;28;20109;-69
2021/05/21 09:11:33;;;;;;;21.35;4.05;;;14.10;67.40;;;;;;5018326;28;20120;-69
2021/05/21 09:14:20;;;;;;;18.73;4.93;;;14.10;68.40;;;;;;5024884;28;20038;-69
2021/05/21 09:16:47;;;;;;;20.35;3.97;;;14.00;69.60;;;;;;5023633;28;20404;-69
2021/05/21 09:19:18;;;;;;;14.80;3.30;;;13.90;69.00;;;;;;5022445;28;20044;-70
2021/05/21 09:21:56;;;;;;;19.52;4.00;;;13.70;69.00;;;;;;5014251;28;20038;-70
2021/05/21 09:24:45;;;;;;;15.40;3.92;;;13.60;69.50;;;;;;5024430;28;20068;-67
2021/05/21 09:27:12;;;;;;;16.20;3.47;;;13.60;71.10;;;;;;5012988;28;20129;-72
2021/05/21 09:29:46;;;;;;;15.57;3.80;;;13.40;71.60;;;;;;5014618;28;20117;-68
2021/05/21 09:32:19;;;;;;;17.13;5.05;;;13.30;72.70;;;;;;5015131;28;20042;-69
2021/05/21 09:34:56;;;;;;;17.80;5.40;;;13.10;73.50;;;;;;5025624;28;20048;-69
2021/05/21 09:37:24;;;;;;;16.65;4.53;;;13.00;75.10;;;;;;5018135;28;20053;-73
2021/05/21 09:40:06;;;;;;;18.77;4.63;;;12.90;76.10;;;;;;5017362;28;20033;-71
2021/05/21 09:42:48;;;;;;;17.27;4.32;;;13.00;75.70;;;;;;5015999;28;20043;-68
2021/05/21 09:45:34;;;;;;;20.33;4.43;;;13.20;75.90;;;;;;5018129;28;20038;-69
2021/05/21 09:48:04;;;;;;;19.15;4.75;;;13.60;75.30;;;;;;4998873;28;20039;-70
2021/05/21 09:50:50;;;;;;;17.58;4.38;;;14.30;75.80;;;;;;4998254;28;20105;-69
2021/05/21 09:53:22;;;;;;;19.05;4.63;;;14.90;73.30;;;;;;4997624;28;20073;-69
2021/05/21 09:55:53;;;;;;;19.67;4.38;;;15.30;70.50;;;;;;4996849;28;20045;-69
2021/05/21 09:58:26;;;;;;;15.90;3.92;;;15.60;66.00;;;;;;4998970;28;20049;-69
2021/05/21 10:01:18;;;;;;;12.93;3.80;;;16.00;66.80;;;;;;4997785;28;20040;-69
2021/05/21 10:03:49;;;;;;;22.58;4.80;;;16.20;63.10;;;;;;5000145;28;20042;-69
2021/05/21 10:06:16;;;;;;;14.80;3.45;;;16.40;60.90;;;;;;4997951;28;20045;-70
2021/05/21 10:08:45;;;;;;;17.10;3.50;;;16.20;61.00;;;;;;4996551;28;20089;-70
2021/05/21 10:11:11;;;;;;;14.40;3.28;;;16.30;60.40;;;;;;4998171;28;20037;-70
2021/05/21 10:13:42;;;;;;;14.48;3.47;;;16.20;56.40;;;;;;5004131;28;20026;-70
2021/05/21 10:16:08;;;;;;;12.65;3.03;;;16.30;55.20;;;;;;5008197;28;20539;-73
2021/05/21 10:18:35;;;;;;;13.80;3.78;;;16.20;54.40;;;;;;5018622;28;20037;-69
2021/05/21 10:21:01;;;;;;;12.57;2.88;;;16.10;52.90;;;;;;5008518;28;20556;-70
2021/05/21 10:23:34;;;;;;;16.23;3.17;;;16.00;53.90;;;;;;4995814;28;20478;-70
2021/05/21 10:26:07;;;;;;;12.85;2.63;;;16.20;52.40;;;;;;5010598;28;20060;-69
2021/05/21 10:28:34;;;;;;;11.02;2.95;;;16.90;51.10;;;;;;5005478;28;20026;-70
2021/05/21 10:31:01;;;;;;;15.38;3.72;;;17.20;50.20;;;;;;5005872;28;20042;-70
2021/05/21 10:33:32;;;;;;;10.52;3.05;;;17.60;49.30;;;;;;5021287;28;20492;-70
2021/05/21 10:36:19;;;;;;;14.07;3.15;;;17.40;47.60;;;;;;5024486;28;20112;-69
2021/05/21 10:39:06;;;;;;;10.90;2.67;;;17.20;48.00;;;;;;5024379;28;20050;-69
2021/05/21 10:41:33;;;;;;;13.93;2.90;;;17.00;48.00;;;;;;5008505;28;20026;-72
2021/05/21 10:43:59;;;;;;;12.05;3.13;;;17.10;48.70;;;;;;5019008;28;20121;-69
2021/05/21 10:46:31;;;;;;;9.52;2.40;;;17.10;46.30;;;;;;5022336;28;20132;-71
2021/05/21 10:49:04;;;;;;;11.73;2.53;;;16.80;47.40;;;;;;5024099;28;20082;-70
2021/05/21 10:51:55;;;;;;;10.98;2.47;;;16.70;47.80;;;;;;5019878;28;20049;-71
2021/05/21 10:54:34;;;;;;;11.93;3.30;;;16.60;49.60;;;;;;5042574;28;20120;-68
2021/05/21 10:57:13;;;;;;;10.77;2.67;;;16.10;48.80;;;;;;5018660;28;20104;-68
2021/05/21 10:59:49;;;;;;;13.05;2.85;;;16.00;49.00;;;;;;5021827;28;20047;-68
2021/05/21 11:02:15;;;;;;;16.38;3.67;;;16.10;49.40;;;;;;5021365;28;20049;-69
2021/05/21 11:04:41;;;;;;;13.07;2.63;;;15.90;49.60;;;;;;5023012;28;20071;-69
2021/05/21 11:07:07;;;;;;;13.95;3.10;;;15.70;50.30;;;;;;5027621;28;20481;-71
2021/05/21 11:09:44;;;;;;;12.43;2.63;;;15.70;49.90;;;;;;5016391;28;20034;-69
2021/05/21 11:12:14;;;;;;;12.60;3.22;;;15.70;51.60;;;;;;4997089;28;20092;-69
2021/05/21 11:14:49;;;;;;;11.32;3.20;;;15.80;51.10;;;;;;5004219;28;20439;-68
2021/05/21 11:17:16;;;;;;;;;;;16.00;52.00;;;;;;4998826;28;20030;-68
2021/05/21 11:19:56;;;;;;;12.90;2.90;;;16.10;51.60;;;;;;5004790;28;20372;-68
2021/05/21 11:22:38;;;;;;;13.85;3.08;;;16.10;54.20;;;;;;5016327;28;20034;-68
2021/05/21 11:25:07;;;;;;;13.32;3.55;;;16.60;54.40;;;;;;5018667;28;20041;-68
2021/05/21 11:27:34;;;;;;;12.68;2.80;;;17.00;52.50;;;;;;5019827;28;20053;-69
2021/05/21 11:30:09;;;;;;;12.73;3.38;;;17.00;50.50;;;;;;5017528;28;20124;-71
2021/05/21 11:32:37;;;;;;;14.35;2.70;;;16.70;53.00;;;;;;5016017;28;20075;-71
2021/05/21 11:35:08;;;;;;;15.77;3.50;;;15.90;61.30;;;;;;5020278;28;20078;-69
2021/05/21 11:37:34;;;;;;;13.70;3.35;;;15.40;63.80;;;;;;5018537;28;20036;-68
2021/05/21 11:40:05;;;;;;;13.18;2.85;;;14.70;66.40;;;;;;5015582;28;20033;-68
2021/05/21 11:42:30;;;;;;;12.60;2.78;;;14.40;67.70;;;;;;5020113;28;20033;-69
2021/05/21 11:44:57;;;;;;;11.73;3.13;;;14.60;72.00;;;;;;5016769;28;20037;-69
2021/05/21 11:47:35;;;;;;;10.85;2.72;;;15.30;70.70;;;;;;5025496;28;20045;-69
2021/05/21 11:50:02;;;;;;;11.25;2.72;;;15.60;68.10;;;;;;5025915;28;20034;-71
2021/05/21 11:52:28;;;;;;;12.80;3.15;;;15.90;66.30;;;;;;5026912;28;20488;-69
2021/05/21 11:54:56;;;;;;;14.02;2.85;;;16.10;65.00;;;;;;5019167;28;20526;-68
2021/05/21 11:57:24;;;;;;;13.27;3.10;;;16.50;61.50;;;;;;5023122;28;20106;-70
2021/05/21 11:59:52;;;;;;;14.75;3.30;;;16.60;57.60;;;;;;5020304;28;20107;-71
2021/05/21 12:02:18;;;;;;;13.00;2.75;;;16.80;56.30;;;;;;5022923;28;20120;-69
2021/05/21 12:04:45;;;;;;;14.40;3.78;;;16.90;56.20;;;;;;5016558;28;20172;-69
2021/05/21 12:07:27;;;;;;;14.07;3.63;;;17.30;56.70;;;;;;5020227;28;20033;-69
2021/05/21 12:10:02;;;;;;;16.98;3.35;;;17.70;53.60;;;;;;5018249;28;20049;-69
2021/05/21 12:12:29;;;;;;;12.20;2.80;;;18.10;52.80;;;;;;5019769;28;20256;-70
2021/05/21 12:15:16;;;;;;;10.77;2.63;;;18.30;48.40;;;;;;5026975;28;20051;-68
2021/05/21 12:17:50;;;;;;;14.80;2.72;;;18.60;47.10;;;;;;5025679;28;20033;-69
2021/05/21 12:20:18;;;;;;;14.23;3.22;;;18.40;45.60;;;;;;5018019;28;20454;-69
2021/05/21 12:23:05;;;;;;;11.57;2.67;;;18.30;45.40;;;;;;5023107;28;20449;-68
2021/05/21 12:25:31;;;;;;;15.52;2.78;;;18.30;45.20;;;;;;5005058;28;20148;-69
2021/05/21 12:27:58;;;;;;;10.90;2.58;;;18.60;45.40;;;;;;5013799;28;20033;-68
2021/05/21 12:30:25;;;;;;;14.00;2.63;;;18.80;45.30;;;;;;5006963;28;20124;-69
2021/05/21 12:32:51;;;;;;;12.95;3.17;;;18.90;44.10;;;;;;5010009;28;20058;-68
2021/05/21 12:35:19;;;;;;;10.30;2.30;;;18.60;44.40;;;;;;5019312;28;20048;-69
2021/05/21 12:37:48;;;;;;;10.70;2.92;;;18.40;44.70;;;;;;5019582;28;20129;-70
2021/05/21 12:40:16;;;;;;;13.48;3.58;;;18.20;44.20;;;;;;5020345;28;20033;-68
2021/05/21 12:42:52;;;;;;;10.25;2.38;;;18.20;45.90;;;;;;5021990;28;20045;-69